CheckWX is a tool to help pilots better visualize weather data.  It is not intended as a substitute for an official pre-flight weather briefing.

13:07:32 UTC

MMCS TAF
Abraham González International Airport
Ciudad Juárez, Mexico
TAF MMCS 260500Z 2606/2706 08012KT P6SM SCT250 FM261600 13015KT P6SM BKN250 FM262100 13010G25KT P6SM BKN020 OVC250 TEMPO 2623/2703 3SM TSRA BKN015CB

Mar-26@
06:00 UTC

Mar-26 @ 06:00 UTC

Mar-26@
16:00 UTC

Mar-26 @ 16:00 UTC

TAF MMCS 260500Z 2606/2706 08012KT P6SM SCT250
Wind
  • 080° at 12 KTS
Cloud Levels
  • Scattered at 25,000' AGL

Mar-26@
16:00 UTC

Mar-26 @ 16:00 UTC

Mar-26@
21:00 UTC

Mar-26 @ 21:00 UTC

FM261600 13015KT P6SM BKN250

From

From Standard forecast or significant change

Wind
  • 130° at 15 KTS
Cloud Levels
  • Broken at 25,000' AGL

Mar-26@
21:00 UTC

Mar-26 @ 21:00 UTC

Mar-27@
06:00 UTC

Mar-27 @ 06:00 UTC

FM262100 13010G25KT P6SM BKN020 OVC250

From

From Standard forecast or significant change

Wind
  • 130° at 10 KTS
  • {Gusting to 25 KTS
Cloud Levels
  • Broken at 2,000' AGL
  • Overcast at 25,000' AGL

Mar-26@
23:00 UTC

Mar-26 @ 23:00 UTC

Mar-27@
03:00 UTC

Mar-27 @ 03:00 UTC

TEMPO 2623/2703 3SM TSRA BKN015CB

Temporary

Temporary Changes expected for less than half the time period

Conditions
Thunderstorm, Rain
Cloud Levels
  • Broken at 1,500' AGL